Time;durP1;ratioP1;P1;durP2;ratioP2;P2;SDS_P1;SDS_P2;PMS_P1;PMS_P2;Temp;Humidity;BMP_temperature;BMP_pressure;BME280_temperature;BME280_humidity;BME280_pressure;Samples;Min_cycle;Max_cycle;Signal;HPM_P1;HPM_P2
2024/03/16 00:01:16;;;;;;;13.43;7.82;;;;;;;;;;5841798;28;20060;-77
2024/03/16 00:04:07;;;;;;;17.65;9.63;;;;;;;;;;5841981;28;20091;-77
2024/03/16 00:06:58;;;;;;;12.95;7.45;;;;;;;;;;5858391;28;20042;-77
2024/03/16 00:09:49;;;;;;;8.20;6.82;;;;;;;;;;5841594;28;20389;-77
2024/03/16 00:12:40;;;;;;;19.27;8.82;;;;;;;;;;5857939;28;20531;-77
2024/03/16 00:15:31;;;;;;;13.63;8.45;;;;;;;;;;5841461;28;20049;-77
2024/03/16 00:18:22;;;;;;;12.98;8.30;;;;;;;;;;5857514;28;20053;-77
2024/03/16 00:21:12;;;;;;;9.20;7.45;;;;;;;;;;5841247;28;20089;-77
2024/03/16 00:24:03;;;;;;;13.07;8.63;;;;;;;;;;5842484;28;20297;-77
2024/03/16 00:26:54;;;;;;;9.90;8.35;;;;;;;;;;5843236;28;20511;-77
2024/03/16 00:29:45;;;;;;;11.75;9.88;;;;;;;;;;5857954;28;20420;-77
2024/03/16 00:32:38;;;;;;;17.38;8.25;;;;;;;;;;5841097;28;20125;-77
2024/03/16 00:35:29;;;;;;;14.55;7.63;;;;;;;;;;5873393;28;20061;-77
2024/03/16 00:38:20;;;;;;;8.48;6.80;;;;;;;;;;5841064;28;20054;-77
2024/03/16 00:41:11;;;;;;;11.15;7.47;;;;;;;;;;5840641;28;20099;-77
2024/03/16 00:44:02;;;;;;;16.60;8.48;;;;;;;;;;5841139;28;20049;-77
2024/03/16 00:46:53;;;;;;;9.32;5.72;;;;;;;;;;5842732;28;20053;-77
2024/03/16 00:49:44;;;;;;;9.88;5.78;;;;;;;;;;5840808;28;20038;-77
2024/03/16 00:52:35;;;;;;;7.28;6.55;;;;;;;;;;5842163;28;20469;-77
2024/03/16 00:55:25;;;;;;;10.52;5.90;;;;;;;;;;5840349;28;20053;-77
2024/03/16 00:58:16;;;;;;;6.78;4.25;;;;;;;;;;5840728;28;20042;-77
2024/03/16 01:01:07;;;;;;;6.45;4.43;;;;;;;;;;5839577;28;20119;-77
2024/03/16 01:03:58;;;;;;;28.20;6.07;;;;;;;;;;5864063;28;20084;-77
2024/03/16 01:06:49;;;;;;;5.78;4.50;;;;;;;;;;5864690;28;20438;-77
2024/03/16 01:09:40;;;;;;;6.15;4.55;;;;;;;;;;5863301;28;20048;-77
2024/03/16 01:12:31;;;;;;;4.63;3.70;;;;;;;;;;5863540;28;20521;-77
2024/03/16 01:15:22;;;;;;;4.97;4.03;;;;;;;;;;5863062;28;20041;-77
2024/03/16 01:18:13;;;;;;;7.70;5.38;;;;;;;;;;5863314;28;20132;-77
2024/03/16 01:21:05;;;;;;;4.85;3.97;;;;;;;;;;5863247;28;20130;-77
2024/03/16 01:23:56;;;;;;;5.57;3.45;;;;;;;;;;5863641;28;20041;-77
2024/03/16 01:26:47;;;;;;;13.77;5.80;;;;;;;;;;5862895;28;20057;-77
2024/03/16 01:29:38;;;;;;;8.50;4.53;;;;;;;;;;5864382;28;20061;-77
2024/03/16 01:32:28;;;;;;;8.95;4.72;;;;;;;;;;5864022;28;20651;-77
2024/03/16 01:35:19;;;;;;;8.30;4.45;;;;;;;;;;5863987;28;20129;-77
2024/03/16 01:38:10;;;;;;;3.90;3.45;;;;;;;;;;5862917;28;20066;-77
2024/03/16 01:41:02;;;;;;;4.32;3.42;;;;;;;;;;5863698;28;20057;-77
2024/03/16 01:43:52;;;;;;;11.23;5.05;;;;;;;;;;5831711;28;20580;-77
2024/03/16 01:46:44;;;;;;;4.43;3.83;;;;;;;;;;5863057;28;20068;-77
2024/03/16 01:49:34;;;;;;;6.00;4.50;;;;;;;;;;5862551;28;20052;-77
2024/03/16 01:52:28;;;;;;;6.05;5.00;;;;;;;;;;5878782;28;20133;-77
2024/03/16 01:55:19;;;;;;;10.30;6.05;;;;;;;;;;5862280;28;20407;-77
2024/03/16 01:58:10;;;;;;;11.55;7.13;;;;;;;;;;5862445;28;20057;-76
2024/03/16 02:01:01;;;;;;;7.13;5.13;;;;;;;;;;5862365;28;20057;-77
2024/03/16 02:03:57;;;;;;;6.43;4.82;;;;;;;;;;5862586;28;20120;-77
2024/03/16 02:06:49;;;;;;;16.27;7.20;;;;;;;;;;5862098;28;20048;-77
2024/03/16 02:09:40;;;;;;;10.02;5.68;;;;;;;;;;5862050;28;20052;-77
2024/03/16 02:12:31;;;;;;;7.00;5.68;;;;;;;;;;5861886;28;20055;-77
2024/03/16 02:15:22;;;;;;;13.23;7.57;;;;;;;;;;5863084;28;20041;-77
2024/03/16 02:18:13;;;;;;;8.75;5.90;;;;;;;;;;5862790;28;20050;-77
2024/03/16 02:21:09;;;;;;;8.82;6.05;;;;;;;;;;5861723;28;20147;-76
2024/03/16 02:24:00;;;;;;;11.30;6.05;;;;;;;;;;5862264;28;20053;-77
2024/03/16 02:26:51;;;;;;;14.60;7.03;;;;;;;;;;5861927;28;20139;-77
2024/03/16 02:29:42;;;;;;;9.32;7.20;;;;;;;;;;5861498;28;20419;-77
2024/03/16 02:32:33;;;;;;;7.90;6.18;;;;;;;;;;5861590;28;20041;-77
2024/03/16 02:35:24;;;;;;;7.75;5.93;;;;;;;;;;5862690;28;20045;-77
2024/03/16 02:38:15;;;;;;;7.15;6.05;;;;;;;;;;5862878;28;20056;-77
2024/03/16 02:41:07;;;;;;;8.30;5.88;;;;;;;;;;5861518;28;20060;-77
2024/03/16 02:43:58;;;;;;;6.50;5.47;;;;;;;;;;5863278;28;20053;-77
2024/03/16 02:46:49;;;;;;;10.52;6.78;;;;;;;;;;5862634;28;20511;-77
2024/03/16 02:49:40;;;;;;;9.27;6.22;;;;;;;;;;5861214;28;20045;-77
2024/03/16 02:52:31;;;;;;;13.55;6.82;;;;;;;;;;5860396;28;20164;-77
2024/03/16 02:55:21;;;;;;;7.28;4.65;;;;;;;;;;5877616;28;20056;-77
2024/03/16 02:58:13;;;;;;;5.03;4.28;;;;;;;;;;5828539;28;20420;-77
2024/03/16 03:01:03;;;;;;;7.95;5.75;;;;;;;;;;5861220;28;20578;-77
2024/03/16 03:03:56;;;;;;;8.38;5.10;;;;;;;;;;5861606;28;20052;-77
2024/03/16 03:06:46;;;;;;;12.10;6.07;;;;;;;;;;5877414;28;20128;-77
2024/03/16 03:09:37;;;;;;;6.28;5.15;;;;;;;;;;5862279;28;20503;-77
2024/03/16 03:12:28;;;;;;;16.48;6.53;;;;;;;;;;5862269;28;20052;-77
2024/03/16 03:15:19;;;;;;;5.25;4.45;;;;;;;;;;5860932;28;20131;-77
2024/03/16 03:18:10;;;;;;;10.90;6.65;;;;;;;;;;5860877;28;20049;-77
2024/03/16 03:21:02;;;;;;;13.75;6.53;;;;;;;;;;5862439;28;20053;-77
2024/03/16 03:23:52;;;;;;;6.78;6.07;;;;;;;;;;5829999;28;20132;-77
2024/03/16 03:26:43;;;;;;;12.60;7.43;;;;;;;;;;5859860;28;20046;-77
2024/03/16 03:29:34;;;;;;;7.93;6.80;;;;;;;;;;5860985;28;20411;-77
2024/03/16 03:32:25;;;;;;;10.48;6.72;;;;;;;;;;5860617;28;20045;-77
2024/03/16 03:35:16;;;;;;;6.50;5.85;;;;;;;;;;5876875;28;20148;-77
2024/03/16 03:38:07;;;;;;;8.63;6.75;;;;;;;;;;5860939;28;20060;-77
2024/03/16 03:40:58;;;;;;;15.57;6.95;;;;;;;;;;5861038;28;20523;-77
2024/03/16 03:43:57;;;;;;;5.80;4.97;;;;;;;;;;5860644;28;20042;-77
2024/03/16 03:46:51;;;;;;;11.93;5.00;;;;;;;;;;5860802;28;20053;-77
2024/03/16 03:49:50;;;;;;;11.45;5.43;;;;;;;;;;5860632;28;20041;-77
2024/03/16 03:52:41;;;;;;;18.02;7.30;;;;;;;;;;5861692;28;20042;-77
2024/03/16 03:55:32;;;;;;;8.90;6.15;;;;;;;;;;5860610;28;20466;-77
2024/03/16 03:58:24;;;;;;;6.35;4.75;;;;;;;;;;5827986;28;20053;-77
2024/03/16 04:01:17;;;;;;;9.95;6.90;;;;;;;;;;5860501;28;20056;-77
2024/03/16 04:04:08;;;;;;;7.25;5.97;;;;;;;;;;5862821;28;20157;-77
2024/03/16 04:06:58;;;;;;;9.30;5.80;;;;;;;;;;5865293;28;20456;-77
2024/03/16 04:09:49;;;;;;;5.53;5.07;;;;;;;;;;5864911;28;20503;-77
2024/03/16 04:12:40;;;;;;;8.05;5.70;;;;;;;;;;5864636;28;20045;-77
2024/03/16 04:15:31;;;;;;;15.55;6.07;;;;;;;;;;5864298;28;20059;-77
2024/03/16 04:18:22;;;;;;;7.75;5.00;;;;;;;;;;5864468;28;20045;-77
2024/03/16 04:21:13;;;;;;;6.13;5.30;;;;;;;;;;5865675;28;20443;-77
2024/03/16 04:24:04;;;;;;;9.80;5.80;;;;;;;;;;5864504;28;20049;-77
2024/03/16 04:26:55;;;;;;;9.88;6.32;;;;;;;;;;5865965;28;20091;-77
2024/03/16 04:29:46;;;;;;;9.00;6.25;;;;;;;;;;5864215;28;20049;-77
2024/03/16 04:32:37;;;;;;;10.45;7.68;;;;;;;;;;5880445;28;20048;-77
2024/03/16 04:35:28;;;;;;;8.73;6.80;;;;;;;;;;5863846;28;20100;-77
2024/03/16 04:38:20;;;;;;;13.23;8.38;;;;;;;;;;5864065;28;20064;-77
2024/03/16 04:41:13;;;;;;;11.48;8.40;;;;;;;;;;5863911;28;20046;-77
2024/03/16 04:44:03;;;;;;;19.38;12.52;;;;;;;;;;5880424;28;20068;-77
2024/03/16 04:46:54;;;;;;;9.45;7.95;;;;;;;;;;5864097;28;20499;-77
2024/03/16 04:49:45;;;;;;;8.85;6.65;;;;;;;;;;5864964;28;20393;-77
2024/03/16 04:52:36;;;;;;;12.52;7.50;;;;;;;;;;5831145;28;20037;-77
2024/03/16 04:55:27;;;;;;;13.38;6.40;;;;;;;;;;5865073;28;20053;-77
2024/03/16 04:58:17;;;;;;;14.80;9.18;;;;;;;;;;5864983;28;20049;-77
2024/03/16 05:01:13;;;;;;;18.98;9.05;;;;;;;;;;5863687;28;20050;-77
2024/03/16 05:04:04;;;;;;;18.35;6.55;;;;;;;;;;5863663;28;20087;-77
2024/03/16 05:06:55;;;;;;;11.70;8.98;;;;;;;;;;5863828;28;20045;-77
2024/03/16 05:09:46;;;;;;;7.78;6.18;;;;;;;;;;5864593;28;20100;-77
2024/03/16 05:12:38;;;;;;;12.93;6.10;;;;;;;;;;5863429;28;20051;-77
2024/03/16 05:15:29;;;;;;;15.55;5.57;;;;;;;;;;5862323;28;20049;-77
2024/03/16 05:18:20;;;;;;;11.57;6.30;;;;;;;;;;5863090;28;20057;-77
2024/03/16 05:21:12;;;;;;;11.23;7.40;;;;;;;;;;5863304;28;20503;-77
2024/03/16 05:24:03;;;;;;;14.85;7.00;;;;;;;;;;5864538;28;20176;-77
2024/03/16 05:26:54;;;;;;;9.75;7.20;;;;;;;;;;5863468;28;20045;-77
2024/03/16 05:29:44;;;;;;;11.25;9.25;;;;;;;;;;5864215;28;20041;-77
2024/03/16 05:32:35;;;;;;;12.93;9.93;;;;;;;;;;5862663;28;20045;-77
2024/03/16 05:35:28;;;;;;;9.85;7.57;;;;;;;;;;5862736;28;20522;-77
2024/03/16 05:38:20;;;;;;;14.38;8.27;;;;;;;;;;5862734;28;20046;-77
2024/03/16 05:41:10;;;;;;;34.63;7.90;;;;;;;;;;5862740;28;20053;-77
2024/03/16 05:44:01;;;;;;;14.05;9.25;;;;;;;;;;5863093;28;20501;-77
2024/03/16 05:46:52;;;;;;;16.65;8.10;;;;;;;;;;5862993;28;20423;-77
2024/03/16 05:49:43;;;;;;;12.82;8.95;;;;;;;;;;5862355;28;20415;-77
2024/03/16 05:52:35;;;;;;;16.92;7.60;;;;;;;;;;5862383;28;20060;-77
2024/03/16 05:55:26;;;;;;;10.95;6.07;;;;;;;;;;5862314;28;20499;-77
2024/03/16 05:58:17;;;;;;;9.20;4.85;;;;;;;;;;5862225;28;20129;-77
2024/03/16 06:01:08;;;;;;;10.80;5.90;;;;;;;;;;5862062;28;20157;-77
2024/03/16 06:03:59;;;;;;;17.45;7.40;;;;;;;;;;5862974;28;20061;-77
2024/03/16 06:06:49;;;;;;;10.70;5.70;;;;;;;;;;5862175;28;20041;-77
2024/03/16 06:09:40;;;;;;;11.02;6.88;;;;;;;;;;5861968;28;20132;-77
2024/03/16 06:12:31;;;;;;;9.18;6.07;;;;;;;;;;5862350;28;20475;-77
2024/03/16 06:15:22;;;;;;;19.20;8.35;;;;;;;;;;5862412;28;20520;-77
2024/03/16 06:18:13;;;;;;;12.30;8.13;;;;;;;;;;5864480;28;20124;-77
2024/03/16 06:21:04;;;;;;;17.15;9.88;;;;;;;;;;5861829;28;20204;-77
2024/03/16 06:23:55;;;;;;;18.58;11.30;;;;;;;;;;5878802;28;20049;-77
2024/03/16 06:26:54;;;;;;;15.80;8.13;;;;;;;;;;5861559;28;20046;-77
2024/03/16 06:29:52;;;;;;;57.03;14.52;;;;;;;;;;5863195;28;20049;-77
2024/03/16 06:35:56;;;;;;;25.17;14.25;;;;;;;;;;5838833;28;20433;-77
2024/03/16 06:38:47;;;;;;;22.95;13.18;;;;;;;;;;5839961;28;20042;-77
2024/03/16 06:41:38;;;;;;;18.15;9.65;;;;;;;;;;5839818;28;20143;-77
2024/03/16 06:44:30;;;;;;;18.02;8.48;;;;;;;;;;5839841;28;20049;-77
2024/03/16 06:47:21;;;;;;;27.77;8.98;;;;;;;;;;5838507;28;20049;-77
2024/03/16 06:50:12;;;;;;;16.23;8.52;;;;;;;;;;5822901;28;20141;-77
2024/03/16 06:53:11;;;;;;;11.00;7.28;;;;;;;;;;5823250;28;20045;-77
2024/03/16 06:56:04;;;;;;;;;;;;;;;;;;5856492;28;20060;-77
2024/03/16 06:58:55;;;;;;;14.23;6.30;;;;;;;;;;5858227;28;19935;-77
2024/03/16 07:01:46;;;;;;;12.95;8.02;;;;;;;;;;5841611;28;20073;-77
2024/03/16 07:04:37;;;;;;;16.38;8.48;;;;;;;;;;5822066;28;20072;-77
2024/03/16 07:07:28;;;;;;;14.50;7.78;;;;;;;;;;5838194;28;20056;-77
2024/03/16 07:10:18;;;;;;;10.75;6.82;;;;;;;;;;5838283;28;20046;-77
2024/03/16 07:13:10;;;;;;;14.18;6.90;;;;;;;;;;5839387;28;20069;-77
2024/03/16 07:16:01;;;;;;;8.57;5.53;;;;;;;;;;5838094;28;20049;-77
2024/03/16 07:18:52;;;;;;;11.20;6.50;;;;;;;;;;5839211;28;20164;-77
2024/03/16 07:21:43;;;;;;;12.95;7.43;;;;;;;;;;5837977;28;20064;-77
2024/03/16 07:24:34;;;;;;;7.07;5.45;;;;;;;;;;5837836;28;20042;-77
2024/03/16 07:27:25;;;;;;;10.75;6.80;;;;;;;;;;5837897;28;20112;-77
2024/03/16 07:30:18;;;;;;;9.07;6.47;;;;;;;;;;5838005;28;20054;-77
2024/03/16 07:33:11;;;;;;;13.70;6.28;;;;;;;;;;5837707;28;20056;-77
2024/03/16 07:36:04;;;;;;;13.38;6.80;;;;;;;;;;5837954;28;20401;-77
2024/03/16 07:38:54;;;;;;;31.30;17.67;;;;;;;;;;5824116;28;20064;-77
2024/03/16 07:41:45;;;;;;;51.42;26.38;;;;;;;;;;5843495;28;20052;-77
2024/03/16 07:44:37;;;;;;;39.80;21.20;;;;;;;;;;5842226;28;20042;-77
2024/03/16 07:47:28;;;;;;;41.70;18.02;;;;;;;;;;5841864;28;20050;-77
2024/03/16 07:50:19;;;;;;;15.73;9.38;;;;;;;;;;5825961;28;20061;-77
2024/03/16 07:53:10;;;;;;;9.07;5.90;;;;;;;;;;5841862;28;20050;-77
2024/03/16 07:56:01;;;;;;;11.20;5.68;;;;;;;;;;5843333;28;20127;-78
2024/03/16 07:58:51;;;;;;;9.38;5.70;;;;;;;;;;5842283;28;20054;-77
2024/03/16 08:01:42;;;;;;;9.00;5.90;;;;;;;;;;5841778;28;20056;-78
2024/03/16 08:04:34;;;;;;;7.45;5.22;;;;;;;;;;5858230;28;20053;-77
2024/03/16 08:07:26;;;;;;;6.78;3.83;;;;;;;;;;5844318;28;20048;-78
2024/03/16 08:10:17;;;;;;;9.35;5.50;;;;;;;;;;5841773;28;20124;-77
2024/03/16 08:13:08;;;;;;;7.93;5.13;;;;;;;;;;5841651;28;20049;-77
2024/03/16 08:15:59;;;;;;;8.38;4.75;;;;;;;;;;5841909;28;20242;-77
2024/03/16 08:18:50;;;;;;;8.65;4.05;;;;;;;;;;5842421;28;20057;-77
2024/03/16 08:21:41;;;;;;;5.13;3.30;;;;;;;;;;5842005;28;20056;-78
2024/03/16 08:24:32;;;;;;;5.53;3.47;;;;;;;;;;5842026;28;20052;-77
2024/03/16 08:27:24;;;;;;;10.13;4.35;;;;;;;;;;5842234;28;20057;-78
2024/03/16 08:30:23;;;;;;;6.07;4.07;;;;;;;;;;5841581;28;20052;-78
2024/03/16 08:33:13;;;;;;;10.15;3.92;;;;;;;;;;5825859;28;20054;-78
2024/03/16 08:36:05;;;;;;;4.88;3.75;;;;;;;;;;5841571;28;20192;-77
2024/03/16 08:38:56;;;;;;;5.88;3.38;;;;;;;;;;5842278;28;20050;-78
2024/03/16 08:41:53;;;;;;;5.30;3.85;;;;;;;;;;5842175;28;20057;-78
2024/03/16 08:44:44;;;;;;;3.55;2.75;;;;;;;;;;5825503;28;20038;-78
2024/03/16 08:47:35;;;;;;;6.22;3.78;;;;;;;;;;5841012;28;20041;-78
2024/03/16 08:50:27;;;;;;;9.48;2.90;;;;;;;;;;5839636;28;20038;-78
2024/03/16 08:53:18;;;;;;;3.95;3.05;;;;;;;;;;5842187;28;20061;-78
2024/03/16 08:56:09;;;;;;;4.28;2.33;;;;;;;;;;5841043;28;20416;-78
2024/03/16 08:59:02;;;;;;;5.15;2.90;;;;;;;;;;5841278;28;20061;-79
2024/03/16 09:01:53;;;;;;;3.47;2.38;;;;;;;;;;5842023;28;20092;-78
2024/03/16 09:04:44;;;;;;;6.03;3.38;;;;;;;;;;5840760;28;20038;-78
2024/03/16 09:07:40;;;;;;;5.53;3.15;;;;;;;;;;5841015;28;20051;-78
2024/03/16 09:10:30;;;;;;;3.70;2.45;;;;;;;;;;5840823;28;20053;-78
2024/03/16 09:13:21;;;;;;;3.83;2.72;;;;;;;;;;5840666;28;20053;-78
2024/03/16 09:16:12;;;;;;;3.55;2.10;;;;;;;;;;5840484;28;20372;-78
2024/03/16 09:19:03;;;;;;;2.22;2.03;;;;;;;;;;5840515;28;20057;-78
2024/03/16 09:21:54;;;;;;;9.20;2.83;;;;;;;;;;5824957;28;20121;-78
2024/03/16 09:24:46;;;;;;;3.50;2.80;;;;;;;;;;5824054;28;20435;-78
2024/03/16 09:27:37;;;;;;;3.10;2.30;;;;;;;;;;5840372;28;20046;-79
2024/03/16 09:30:28;;;;;;;3.47;2.47;;;;;;;;;;5823828;28;20149;-79
2024/03/16 09:33:19;;;;;;;6.10;3.00;;;;;;;;;;5840009;28;20396;-78
2024/03/16 09:36:09;;;;;;;17.85;2.22;;;;;;;;;;5840940;28;20428;-78
2024/03/16 09:39:00;;;;;;;4.45;3.00;;;;;;;;;;5841865;28;20046;-79
2024/03/16 09:41:51;;;;;;;15.63;3.05;;;;;;;;;;5841914;28;20137;-79
2024/03/16 09:44:42;;;;;;;5.05;2.78;;;;;;;;;;5840322;28;20557;-78
2024/03/16 09:47:32;;;;;;;4.90;2.38;;;;;;;;;;5807900;28;20061;-78
2024/03/16 09:50:23;;;;;;;3.67;2.33;;;;;;;;;;5808035;28;20053;-78
2024/03/16 09:53:32;;;;;;;5.30;2.67;;;;;;;;;;5840605;28;20476;-78
2024/03/16 09:56:22;;;;;;;3.03;2.72;;;;;;;;;;5824081;28;20420;-78
2024/03/16 09:59:17;;;;;;;5.15;2.47;;;;;;;;;;5839747;28;20060;-78
2024/03/16 10:02:16;;;;;;;2.90;2.38;;;;;;;;;;5823662;28;20054;-78
2024/03/16 10:05:11;;;;;;;5.00;2.78;;;;;;;;;;5824080;28;20069;-78
2024/03/16 10:08:01;;;;;;;3.63;2.65;;;;;;;;;;5823121;28;20049;-78
2024/03/16 10:11:12;;;;;;;4.35;3.00;;;;;;;;;;5840436;28;20042;-79
2024/03/16 10:14:05;;;;;;;3.63;2.95;;;;;;;;;;5840187;28;20057;-79
2024/03/16 10:16:55;;;;;;;4.03;2.63;;;;;;;;;;5846809;28;20484;-78
2024/03/16 10:19:45;;;;;;;3.15;2.38;;;;;;;;;;5862170;28;20098;-79
2024/03/16 10:22:35;;;;;;;3.85;2.92;;;;;;;;;;5845775;28;20120;-79
2024/03/16 10:25:25;;;;;;;3.15;2.53;;;;;;;;;;5845692;28;20133;-79
2024/03/16 10:28:15;;;;;;;16.23;3.55;;;;;;;;;;5845616;28;20045;-79
2024/03/16 10:31:05;;;;;;;4.68;2.10;;;;;;;;;;5845637;28;20041;-79
2024/03/16 10:33:59;;;;;;;4.68;2.65;;;;;;;;;;5846095;28;20125;-78
2024/03/16 10:36:50;;;;;;;3.80;2.97;;;;;;;;;;5845331;28;20144;-78
2024/03/16 10:39:41;;;;;;;5.28;3.13;;;;;;;;;;5840293;28;20091;-79
2024/03/16 10:42:32;;;;;;;11.50;2.92;;;;;;;;;;5823820;28;20053;-79
2024/03/16 10:45:23;;;;;;;4.38;2.83;;;;;;;;;;5848794;28;20053;-79
2024/03/16 10:48:15;;;;;;;2.40;1.98;;;;;;;;;;5822431;28;20420;-79
2024/03/16 10:51:09;;;;;;;5.72;3.15;;;;;;;;;;5839335;28;20065;-78
2024/03/16 10:54:08;;;;;;;3.70;2.58;;;;;;;;;;5846508;28;20064;-79
2024/03/16 10:56:58;;;;;;;5.45;2.33;;;;;;;;;;5864515;28;20593;-80
2024/03/16 10:59:48;;;;;;;3.10;2.30;;;;;;;;;;5878373;28;20107;-78
2024/03/16 11:02:48;;;;;;;7.55;2.83;;;;;;;;;;5861442;28;20056;-78
2024/03/16 11:05:47;;;;;;;2.55;2.05;;;;;;;;;;5877970;28;20624;-79
2024/03/16 11:08:50;;;;;;;5.82;2.70;;;;;;;;;;5847046;28;20195;-79
2024/03/16 11:11:41;;;;;;;3.10;2.10;;;;;;;;;;5861441;28;20099;-79
2024/03/16 11:14:31;;;;;;;4.65;2.63;;;;;;;;;;5844072;28;20048;-78
2024/03/16 11:17:27;;;;;;;6.32;3.72;;;;;;;;;;5828542;28;20065;-78
2024/03/16 11:20:38;;;;;;;4.80;2.55;;;;;;;;;;5878688;28;20044;-78
2024/03/16 11:23:31;;;;;;;21.10;4.60;;;;;;;;;;5861727;28;20491;-79
2024/03/16 11:26:26;;;;;;;6.68;3.03;;;;;;;;;;5844905;28;20056;-79
2024/03/16 11:29:28;;;;;;;4.50;2.33;;;;;;;;;;5877887;28;20056;-78
2024/03/16 11:32:17;;;;;;;3.03;1.80;;;;;;;;;;5846177;28;20356;-78
2024/03/16 11:35:13;;;;;;;2.25;1.98;;;;;;;;;;5845004;28;20045;-78
2024/03/16 11:38:04;;;;;;;5.65;2.53;;;;;;;;;;5844418;28;20547;-78
2024/03/16 11:40:54;;;;;;;5.07;2.28;;;;;;;;;;5822338;28;20041;-78
2024/03/16 11:43:48;;;;;;;4.03;2.17;;;;;;;;;;5822050;28;20415;-80
2024/03/16 11:46:42;;;;;;;3.75;2.63;;;;;;;;;;5854901;28;20049;-79
2024/03/16 11:49:34;;;;;;;4.50;2.85;;;;;;;;;;5821962;28;20042;-79
2024/03/16 11:52:25;;;;;;;3.83;2.22;;;;;;;;;;5838317;28;20052;-78
2024/03/16 11:55:16;;;;;;;3.00;2.50;;;;;;;;;;5854587;28;20050;-78
2024/03/16 11:58:05;;;;;;;4.43;2.58;;;;;;;;;;5838469;28;20050;-78
2024/03/16 12:00:57;;;;;;;2.80;2.03;;;;;;;;;;5838636;28;20049;-78
2024/03/16 12:03:48;;;;;;;3.78;2.15;;;;;;;;;;5827792;28;20148;-79
2024/03/16 12:06:38;;;;;;;4.50;1.90;;;;;;;;;;5844784;28;20045;-78
2024/03/16 12:09:31;;;;;;;9.63;1.65;;;;;;;;;;5861120;28;20107;-78
2024/03/16 12:12:21;;;;;;;6.68;2.33;;;;;;;;;;5845081;28;20057;-78
2024/03/16 12:15:22;;;;;;;6.53;1.92;;;;;;;;;;5844571;28;20123;-78
2024/03/16 12:18:13;;;;;;;5.40;3.15;;;;;;;;;;5877459;28;20045;-78
2024/03/16 12:21:03;;;;;;;8.38;2.75;;;;;;;;;;5860860;28;20087;-78
2024/03/16 12:23:53;;;;;;;19.30;8.73;;;;;;;;;;5878225;28;20049;-78
2024/03/16 12:26:49;;;;;;;24.70;4.47;;;;;;;;;;5864908;28;20101;-78
2024/03/16 12:29:42;;;;;;;10.93;2.60;;;;;;;;;;5848990;28;20045;-79
2024/03/16 12:32:32;;;;;;;3.08;2.35;;;;;;;;;;5848279;28;20480;-78
2024/03/16 12:35:22;;;;;;;2.75;1.58;;;;;;;;;;5815783;28;20423;-78
2024/03/16 12:38:12;;;;;;;3.80;2.78;;;;;;;;;;5864561;28;20132;-78
2024/03/16 12:41:02;;;;;;;7.50;2.55;;;;;;;;;;5847875;28;20052;-77
2024/03/16 12:43:52;;;;;;;9.93;3.97;;;;;;;;;;5841966;28;20045;-79
2024/03/16 12:46:41;;;;;;;11.50;5.50;;;;;;;;;;5841504;28;20472;-78
2024/03/16 12:49:31;;;;;;;7.38;4.55;;;;;;;;;;5825041;28;20504;-78
2024/03/16 12:52:23;;;;;;;14.90;5.07;;;;;;;;;;5857593;28;20054;-78
2024/03/16 12:55:12;;;;;;;13.82;8.02;;;;;;;;;;5808882;28;20104;-78
2024/03/16 12:58:03;;;;;;;7.32;2.67;;;;;;;;;;5841137;28;20455;-78
2024/03/16 13:00:53;;;;;;;7.13;3.53;;;;;;;;;;5841700;28;20050;-78
2024/03/16 13:03:42;;;;;;;2.13;1.52;;;;;;;;;;5824680;28;20514;-78
2024/03/16 13:06:32;;;;;;;27.42;6.97;;;;;;;;;;5841216;28;20046;-78
2024/03/16 13:09:25;;;;;;;5.72;2.17;;;;;;;;;;5857193;28;20042;-78
2024/03/16 13:12:16;;;;;;;2.63;1.48;;;;;;;;;;5824908;28;20049;-78
2024/03/16 13:15:08;;;;;;;7.35;3.15;;;;;;;;;;5824497;28;20124;-79
2024/03/16 13:17:58;;;;;;;4.35;3.05;;;;;;;;;;5824870;28;20503;-79
2024/03/16 13:20:48;;;;;;;5.18;3.25;;;;;;;;;;5823999;28;20388;-79
2024/03/16 13:23:38;;;;;;;5.07;3.05;;;;;;;;;;5840367;28;20111;-78
2024/03/16 13:26:28;;;;;;;4.65;2.70;;;;;;;;;;5840475;28;20049;-79
2024/03/16 13:29:18;;;;;;;7.30;2.70;;;;;;;;;;5840338;28;20119;-78
2024/03/16 13:32:08;;;;;;;2.38;1.13;;;;;;;;;;5824717;28;20064;-78
2024/03/16 13:34:57;;;;;;;4.75;2.42;;;;;;;;;;5824646;28;20052;-78
2024/03/16 13:37:47;;;;;;;4.60;2.47;;;;;;;;;;5856029;28;20076;-78
2024/03/16 13:40:37;;;;;;;6.43;2.88;;;;;;;;;;5824247;28;20556;-78
2024/03/16 13:43:28;;;;;;;3.75;2.55;;;;;;;;;;5823791;28;20483;-78
2024/03/16 13:46:20;;;;;;;7.85;2.90;;;;;;;;;;5856443;28;20464;-78
2024/03/16 13:49:12;;;;;;;5.22;2.10;;;;;;;;;;5839926;28;20100;-78
2024/03/16 13:52:03;;;;;;;4.28;2.85;;;;;;;;;;5824346;28;20050;-78
2024/03/16 13:54:53;;;;;;;10.10;5.63;;;;;;;;;;5879895;28;20053;-78
2024/03/16 13:57:43;;;;;;;2.63;1.63;;;;;;;;;;5846154;28;20463;-78
2024/03/16 14:00:33;;;;;;;6.18;4.10;;;;;;;;;;5842191;28;20034;-78
2024/03/16 14:03:23;;;;;;;2.63;1.80;;;;;;;;;;5839725;28;20041;-78
2024/03/16 14:06:13;;;;;;;8.82;4.82;;;;;;;;;;5856022;28;20093;-78
2024/03/16 14:09:06;;;;;;;4.20;2.38;;;;;;;;;;5855807;28;20061;-78
2024/03/16 14:11:56;;;;;;;0.70;0.63;;;;;;;;;;5839648;28;20064;-79
2024/03/16 14:14:47;;;;;;;2.08;0.85;;;;;;;;;;5823372;28;20057;-78
2024/03/16 14:17:41;;;;;;;1.50;0.75;;;;;;;;;;5839487;28;20747;-78
2024/03/16 14:20:31;;;;;;;0.82;0.60;;;;;;;;;;5823797;28;20045;-78
2024/03/16 14:23:21;;;;;;;3.33;1.25;;;;;;;;;;5839233;28;20149;-78
2024/03/16 14:26:13;;;;;;;1.88;1.20;;;;;;;;;;5823304;28;20057;-78
2024/03/16 14:29:04;;;;;;;4.75;2.15;;;;;;;;;;5823015;28;20054;-78
2024/03/16 14:31:54;;;;;;;3.28;2.13;;;;;;;;;;5839682;28;20635;-78
2024/03/16 14:34:43;;;;;;;3.13;2.28;;;;;;;;;;5855577;28;20041;-78
2024/03/16 14:37:33;;;;;;;5.93;4.60;;;;;;;;;;5838864;28;20045;-78
2024/03/16 14:40:23;;;;;;;12.40;5.68;;;;;;;;;;5838903;28;20042;-78
2024/03/16 14:43:18;;;;;;;4.20;2.65;;;;;;;;;;5822738;28;20057;-78
2024/03/16 14:46:08;;;;;;;3.10;2.05;;;;;;;;;;5823090;28;20064;-78
2024/03/16 14:48:57;;;;;;;2.88;1.50;;;;;;;;;;5839078;28;20058;-78
2024/03/16 14:51:47;;;;;;;1.67;1.13;;;;;;;;;;5838475;28;20451;-78
2024/03/16 14:54:38;;;;;;;1.55;1.20;;;;;;;;;;5822122;28;20042;-78
2024/03/16 14:57:29;;;;;;;3.03;1.60;;;;;;;;;;5854471;28;20046;-78
2024/03/16 15:00:19;;;;;;;1.60;1.50;;;;;;;;;;5838337;28;20049;-78
2024/03/16 15:03:11;;;;;;;2.00;1.23;;;;;;;;;;5854761;28;20050;-77
2024/03/16 15:06:01;;;;;;;2.53;1.90;;;;;;;;;;5822385;28;20053;-77
2024/03/16 15:08:50;;;;;;;1.88;1.00;;;;;;;;;;5822219;28;20534;-77
2024/03/16 15:11:40;;;;;;;1.65;0.95;;;;;;;;;;5821894;28;20091;-78
2024/03/16 15:14:30;;;;;;;4.80;1.73;;;;;;;;;;5854873;28;20046;-78
2024/03/16 15:17:21;;;;;;;5.03;1.92;;;;;;;;;;5821524;28;20038;-78
2024/03/16 15:20:11;;;;;;;3.63;2.17;;;;;;;;;;5854574;28;20046;-78
2024/03/16 15:23:00;;;;;;;6.63;1.35;;;;;;;;;;5822447;28;20052;-78
2024/03/16 15:26:01;;;;;;;2.03;1.67;;;;;;;;;;5845013;28;20132;-78
2024/03/16 15:28:52;;;;;;;1.00;0.77;;;;;;;;;;5846097;28;20076;-78
2024/03/16 15:31:42;;;;;;;2.67;0.80;;;;;;;;;;5860586;28;20042;-78
2024/03/16 15:34:32;;;;;;;2.83;1.17;;;;;;;;;;5861009;28;20038;-78
2024/03/16 15:37:23;;;;;;;1.45;0.77;;;;;;;;;;5877250;28;20412;-78
2024/03/16 15:40:13;;;;;;;3.30;1.23;;;;;;;;;;5844517;28;20049;-78
2024/03/16 15:43:03;;;;;;;4.43;3.05;;;;;;;;;;5844650;28;20068;-78
2024/03/16 15:45:53;;;;;;;5.15;2.83;;;;;;;;;;5844835;28;20451;-78
2024/03/16 15:48:43;;;;;;;3.22;2.58;;;;;;;;;;5838843;28;20045;-78
2024/03/16 15:51:33;;;;;;;4.85;3.20;;;;;;;;;;5821989;28;20500;-78
2024/03/16 15:54:22;;;;;;;3.30;2.25;;;;;;;;;;5838261;28;20121;-77
2024/03/16 15:57:12;;;;;;;3.28;2.15;;;;;;;;;;5807220;28;20108;-78
2024/03/16 16:00:04;;;;;;;16.80;9.18;;;;;;;;;;5863968;28;20480;-78
2024/03/16 16:02:55;;;;;;;7.03;4.20;;;;;;;;;;5849214;28;20041;-78
2024/03/16 16:05:45;;;;;;;17.58;12.25;;;;;;;;;;5865743;28;20037;-78
2024/03/16 16:08:35;;;;;;;10.80;1.85;;;;;;;;;;5849109;28;20056;-78
2024/03/16 16:11:24;;;;;;;2.05;1.27;;;;;;;;;;5865388;28;20041;-78
2024/03/16 16:14:14;;;;;;;12.95;6.40;;;;;;;;;;5881884;28;20427;-78
2024/03/16 16:17:04;;;;;;;14.48;7.50;;;;;;;;;;5865205;28;20056;-78
2024/03/16 16:19:54;;;;;;;4.38;2.42;;;;;;;;;;5882013;28;20069;-77
2024/03/16 16:22:44;;;;;;;3.58;1.60;;;;;;;;;;5864840;28;20034;-77
2024/03/16 16:25:37;;;;;;;1.02;0.93;;;;;;;;;;5848568;28;20111;-77
2024/03/16 16:28:27;;;;;;;2.30;0.98;;;;;;;;;;5881156;28;20067;-78
2024/03/16 16:31:16;;;;;;;2.97;2.05;;;;;;;;;;5881216;28;20140;-78
2024/03/16 16:34:06;;;;;;;7.72;5.38;;;;;;;;;;5847448;28;20081;-77
2024/03/16 16:36:56;;;;;;;9.90;5.53;;;;;;;;;;5825413;28;20384;-77
2024/03/16 16:39:46;;;;;;;0.50;0.40;;;;;;;;;;5864556;28;20045;-77
2024/03/16 16:42:36;;;;;;;2.40;1.25;;;;;;;;;;5880817;28;20045;-77
2024/03/16 16:45:26;;;;;;;1.45;1.30;;;;;;;;;;5847940;28;20144;-77
2024/03/16 16:48:16;;;;;;;1.63;0.95;;;;;;;;;;5864454;28;20511;-77
2024/03/16 16:51:06;;;;;;;5.55;1.70;;;;;;;;;;5864038;28;20087;-77
2024/03/16 16:54:03;;;;;;;3.10;1.35;;;;;;;;;;5815921;28;20125;-77
2024/03/16 16:56:56;;;;;;;2.08;1.75;;;;;;;;;;5825407;28;20064;-77
2024/03/16 16:59:46;;;;;;;1.85;1.17;;;;;;;;;;5824640;28;20038;-78
2024/03/16 17:02:38;;;;;;;3.58;2.75;;;;;;;;;;5837493;28;20060;-77
2024/03/16 17:05:27;;;;;;;5.30;1.65;;;;;;;;;;5847555;28;20042;-77